PWSweather.com
Personal Weather Stations
Station Observations
RIORANCHO
Corrales Heights, Rio Rancho, NM 87124

Corrales HeightsRio Rancho, NM 87124

Lat: 35.241928, Lon: -106.647095

Elevation: 5297

Station Type: Davis Vantage Pro 2 Plus

http://www.weatherriorancho.com

High Low Average
Temperature 59.5°F15.3°C 29.9°F-1.2°C 42.2°F5.7°C
Dew Point 23.4°F-4.8°C 18.2°F-7.7°C 21.3°F-5.9°C
Winds 5.8 mph 9.3 kmh Calm Calm 1.0 mph SSW1.6 kmh SSW
Wind Gusts 10.4 mph16.7 kmh -- 3.0 mph4.8 kmh
Humidity 67% 24% 46%
Pressure 30.42 in1030.1 mb 30.27 in1025.1 mb -
Precipitation 0.00 in0.0 mm - -
Hour Temp Dew Point Humidity Winds Wind Gusts Pressure Precip Precip Rate Daily Precip Total
12:00 AM 36.4°F2.4°C 21.3°F-5.9°C 54% Calm Calm -- 30.35 in1027.8 mb - 0.00 in0.0 mm 0.00 in0.0 mm
12:10 AM 35.9°F2.2°C 21.7°F-5.7°C 56% Calm Calm 2.3 mph3.7 kmh 30.34 in1027.4 mb - 0.00 in0.0 mm 0.00 in0.0 mm
12:20 AM 36.3°F2.4°C 21.7°F-5.7°C 55% Calm Calm -- 30.34 in1027.4 mb - 0.00 in0.0 mm 0.00 in0.0 mm
12:30 AM 35.7°F2.1°C 21.5°F-5.8°C 56% Calm Calm 1.2 mph1.9 kmh 30.34 in1027.4 mb - 0.00 in0.0 mm 0.00 in0.0 mm
12:40 AM 35.1°F1.7°C 21.0°F-6.1°C 56% Calm Calm -- 30.34 in1027.4 mb - 0.00 in0.0 mm 0.00 in0.0 mm
12:50 AM 34.8°F1.6°C 20.6°F-6.3°C 56% 1.2 mph W1.9 kmh W 3.5 mph5.6 kmh 30.33 in1027.1 mb - 0.00 in0.0 mm 0.00 in0.0 mm
01:00 AM 35.8°F2.1°C 22.0°F-5.6°C 57% Calm Calm 1.2 mph1.9 kmh 30.34 in1027.4 mb - 0.00 in0.0 mm 0.00 in0.0 mm
01:10 AM 35.7°F2.1°C 21.1°F-6.1°C 55% Calm Calm -- 30.34 in1027.4 mb - 0.00 in0.0 mm 0.00 in0.0 mm
01:20 AM 35.0°F1.7°C 20.9°F-6.2°C 56% Calm Calm -- 30.34 in1027.4 mb - 0.00 in0.0 mm 0.00 in0.0 mm
01:30 AM 34.8°F1.6°C 20.7°F-6.3°C 56% Calm Calm -- 30.35 in1027.8 mb - 0.00 in0.0 mm 0.00 in0.0 mm
01:40 AM 34.5°F1.4°C 20.8°F-6.2°C 57% Calm Calm -- 30.35 in1027.8 mb - 0.00 in0.0 mm 0.00 in0.0 mm
01:50 AM 34.2°F1.2°C 20.5°F-6.4°C 57% Calm Calm 2.3 mph3.7 kmh 30.35 in1027.8 mb - 0.00 in0.0 mm 0.00 in0.0 mm
02:00 AM 34.3°F1.3°C 21.0°F-6.1°C 58% Calm Calm 1.2 mph1.9 kmh 30.35 in1027.8 mb - 0.00 in0.0 mm 0.00 in0.0 mm
02:10 AM 34.2°F1.2°C 20.5°F-6.4°C 57% Calm Calm 1.2 mph1.9 kmh 30.35 in1027.8 mb - 0.00 in0.0 mm 0.00 in0.0 mm
02:20 AM 33.8°F1.0°C 20.6°F-6.3°C 58% Calm Calm -- 30.35 in1027.8 mb - 0.00 in0.0 mm 0.00 in0.0 mm
02:30 AM 33.4°F0.8°C 20.6°F-6.3°C 59% Calm Calm -- 30.36 in1028.1 mb - 0.00 in0.0 mm 0.00 in0.0 mm
02:40 AM 33.4°F0.8°C 21.0°F-6.1°C 60% Calm Calm -- 30.36 in1028.1 mb - 0.00 in0.0 mm 0.00 in0.0 mm
02:50 AM 33.2°F0.7°C 20.8°F-6.2°C 60% Calm Calm -- 30.36 in1028.1 mb - 0.00 in0.0 mm 0.00 in0.0 mm
03:00 AM 32.8°F0.4°C 20.4°F-6.4°C 60% Calm Calm -- 30.36 in1028.1 mb - 0.00 in0.0 mm 0.00 in0.0 mm
03:10 AM 32.3°F0.2°C 20.3°F-6.5°C 61% Calm Calm 1.2 mph1.9 kmh 30.36 in1028.1 mb - 0.00 in0.0 mm 0.00 in0.0 mm
03:20 AM 32.6°F0.3°C 21.0°F-6.1°C 62% Calm Calm 1.2 mph1.9 kmh 30.36 in1028.1 mb - 0.00 in0.0 mm 0.00 in0.0 mm
03:30 AM 33.8°F1.0°C 22.1°F-5.5°C 62% Calm Calm 2.3 mph3.7 kmh 30.36 in1028.1 mb - 0.00 in0.0 mm 0.00 in0.0 mm
03:40 AM 33.8°F1.0°C 21.8°F-5.7°C 61% 1.2 mph WNW1.9 kmh WNW 4.6 mph7.4 kmh 30.36 in1028.1 mb - 0.00 in0.0 mm 0.00 in0.0 mm
03:50 AM 33.9°F1.1°C 21.9°F-5.6°C 61% Calm Calm -- 30.36 in1028.1 mb - 0.00 in0.0 mm 0.00 in0.0 mm
04:00 AM 33.3°F0.7°C 21.3°F-5.9°C 61% 4.6 mph NW7.4 kmh NW 5.8 mph9.3 kmh 30.36 in1028.1 mb - 0.00 in0.0 mm 0.00 in0.0 mm
04:10 AM 32.7°F0.4°C 21.1°F-6.1°C 62% 4.6 mph NNW7.4 kmh NNW 6.9 mph11.1 kmh 30.36 in1028.1 mb - 0.00 in0.0 mm 0.00 in0.0 mm
04:20 AM 32.1°F0.1°C 20.9°F-6.2°C 63% 4.6 mph 7.4 kmh 5.8 mph9.3 kmh 30.36 in1028.1 mb - 0.00 in0.0 mm 0.00 in0.0 mm
04:30 AM 31.5°F-0.3°C 20.7°F-6.3°C 64% 2.3 mph 3.7 kmh 4.6 mph7.4 kmh 30.36 in1028.1 mb - 0.00 in0.0 mm 0.00 in0.0 mm
04:40 AM 31.3°F-0.4°C 20.9°F-6.2°C 65% 1.2 mph 1.9 kmh 3.5 mph5.6 kmh 30.36 in1028.1 mb - 0.00 in0.0 mm 0.00 in0.0 mm
04:50 AM 31.0°F-0.6°C 20.6°F-6.3°C 65% 4.6 mph N7.4 kmh N 5.8 mph9.3 kmh 30.36 in1028.1 mb - 0.00 in0.0 mm 0.00 in0.0 mm
05:00 AM 30.5°F-0.8°C 20.1°F-6.6°C 65% 1.2 mph 1.9 kmh 4.6 mph7.4 kmh 30.37 in1028.4 mb - 0.00 in0.0 mm 0.00 in0.0 mm
05:10 AM 30.0°F-1.1°C 20.0°F-6.7°C 66% Calm Calm 2.3 mph3.7 kmh 30.36 in1028.1 mb - 0.00 in0.0 mm 0.00 in0.0 mm
05:20 AM 29.9°F-1.2°C 20.3°F-6.5°C 67% 2.3 mph N3.7 kmh N 5.8 mph9.3 kmh 30.36 in1028.1 mb - 0.00 in0.0 mm 0.00 in0.0 mm
05:30 AM 30.2°F-1.0°C 20.5°F-6.4°C 67% 4.6 mph N7.4 kmh N 10.4 mph16.7 kmh 30.36 in1028.1 mb - 0.00 in0.0 mm 0.00 in0.0 mm
05:40 AM 30.8°F-0.7°C 21.2°F-6.0°C 67% 3.5 mph N5.6 kmh N 5.8 mph9.3 kmh 30.36 in1028.1 mb - 0.00 in0.0 mm 0.00 in0.0 mm
05:50 AM 31.3°F-0.4°C 21.3°F-5.9°C 66% 4.6 mph N7.4 kmh N 6.9 mph11.1 kmh 30.37 in1028.4 mb - 0.00 in0.0 mm 0.00 in0.0 mm
06:00 AM 31.5°F-0.3°C 21.4°F-5.9°C 66% 3.5 mph N5.6 kmh N 6.9 mph11.1 kmh 30.37 in1028.4 mb - 0.00 in0.0 mm 0.00 in0.0 mm
06:10 AM 32.4°F0.2°C 21.9°F-5.6°C 65% 3.5 mph N5.6 kmh N 4.6 mph7.4 kmh 30.37 in1028.4 mb - 0.00 in0.0 mm 0.00 in0.0 mm
06:20 AM 33.0°F0.6°C 22.1°F-5.5°C 64% 1.2 mph N1.9 kmh N 3.5 mph5.6 kmh 30.37 in1028.4 mb - 0.00 in0.0 mm 0.00 in0.0 mm
06:30 AM 32.9°F0.5°C 21.7°F-5.7°C 63% 3.5 mph N5.6 kmh N 6.9 mph11.1 kmh 30.37 in1028.4 mb - 0.00 in0.0 mm 0.00 in0.0 mm
06:40 AM 32.7°F0.4°C 21.5°F-5.8°C 63% 2.3 mph N3.7 kmh N 5.8 mph9.3 kmh 30.37 in1028.4 mb - 0.00 in0.0 mm 0.00 in0.0 mm
06:50 AM 32.4°F0.2°C 21.6°F-5.8°C 64% 2.3 mph N3.7 kmh N 3.5 mph5.6 kmh 30.38 in1028.8 mb - 0.00 in0.0 mm 0.00 in0.0 mm
07:00 AM 32.3°F0.2°C 21.8°F-5.7°C 65% 2.3 mph N3.7 kmh N 4.6 mph7.4 kmh 30.38 in1028.8 mb - 0.00 in0.0 mm 0.00 in0.0 mm
07:10 AM 32.8°F0.4°C 22.3°F-5.4°C 65% 2.3 mph N3.7 kmh N 8.1 mph13.0 kmh 30.38 in1028.8 mb - 0.00 in0.0 mm 0.00 in0.0 mm
07:20 AM 33.1°F0.6°C 22.2°F-5.4°C 64% 3.5 mph N5.6 kmh N 4.6 mph7.4 kmh 30.38 in1028.8 mb - 0.00 in0.0 mm 0.00 in0.0 mm
07:30 AM 33.4°F0.8°C 22.5°F-5.3°C 64% 4.6 mph N7.4 kmh N 6.9 mph11.1 kmh 30.38 in1028.8 mb - 0.00 in0.0 mm 0.00 in0.0 mm
07:40 AM 33.4°F0.8°C 22.2°F-5.4°C 63% 3.5 mph N5.6 kmh N 6.9 mph11.1 kmh 30.38 in1028.8 mb - 0.00 in0.0 mm 0.00 in0.0 mm
07:50 AM 33.3°F0.7°C 22.4°F-5.3°C 64% 3.5 mph NNW5.6 kmh NNW 4.6 mph7.4 kmh 30.38 in1028.8 mb - 0.00 in0.0 mm 0.00 in0.0 mm
08:00 AM 34.0°F1.1°C 22.7°F-5.2°C 63% 4.6 mph NNW7.4 kmh NNW 8.1 mph13.0 kmh 30.38 in1028.8 mb - 0.00 in0.0 mm 0.00 in0.0 mm
08:10 AM 35.2°F1.8°C 22.7°F-5.2°C 60% 4.6 mph NNW7.4 kmh NNW 8.1 mph13.0 kmh 30.38 in1028.8 mb - 0.00 in0.0 mm 0.00 in0.0 mm
08:20 AM 36.3°F2.4°C 22.9°F-5.1°C 58% 5.8 mph NNW9.3 kmh NNW 8.1 mph13.0 kmh 30.39 in1029.1 mb - 0.00 in0.0 mm 0.00 in0.0 mm
08:30 AM 37.3°F2.9°C 23.0°F-5.0°C 56% 1.2 mph NNW1.9 kmh NNW 3.5 mph5.6 kmh 30.39 in1029.1 mb - 0.00 in0.0 mm 0.00 in0.0 mm
08:40 AM 38.1°F3.4°C 22.9°F-5.1°C 54% 4.6 mph NNW7.4 kmh NNW 8.1 mph13.0 kmh 30.39 in1029.1 mb - 0.00 in0.0 mm 0.00 in0.0 mm
08:50 AM 38.8°F3.8°C 22.7°F-5.2°C 52% 4.6 mph NNW7.4 kmh NNW 6.9 mph11.1 kmh 30.39 in1029.1 mb - 0.00 in0.0 mm 0.00 in0.0 mm
09:00 AM 39.6°F4.2°C 23.0°F-5.0°C 51% Calm Calm 2.3 mph3.7 kmh 30.40 in1029.5 mb - 0.00 in0.0 mm 0.00 in0.0 mm
09:10 AM 40.7°F4.8°C 22.5°F-5.3°C 48% 2.3 mph NNW3.7 kmh NNW 5.8 mph9.3 kmh 30.40 in1029.5 mb - 0.00 in0.0 mm 0.00 in0.0 mm
09:20 AM 41.6°F5.3°C 22.8°F-5.1°C 47% 5.8 mph N9.3 kmh N 10.4 mph16.7 kmh 30.41 in1029.8 mb - 0.00 in0.0 mm 0.00 in0.0 mm
09:30 AM 42.1°F5.6°C 22.7°F-5.2°C 46% 3.5 mph 5.6 kmh 6.9 mph11.1 kmh 30.41 in1029.8 mb - 0.00 in0.0 mm 0.00 in0.0 mm
09:40 AM 42.7°F5.9°C 22.8°F-5.1°C 45% 1.2 mph N1.9 kmh N 3.5 mph5.6 kmh 30.41 in1029.8 mb - 0.00 in0.0 mm 0.00 in0.0 mm
09:50 AM 42.9°F6.1°C 22.5°F-5.3°C 44% 1.2 mph N1.9 kmh N 1.2 mph1.9 kmh 30.41 in1029.8 mb - 0.00 in0.0 mm 0.00 in0.0 mm
10:00 AM 43.6°F6.4°C 22.5°F-5.3°C 43% 5.8 mph N9.3 kmh N 6.9 mph11.1 kmh 30.42 in1030.1 mb - 0.00 in0.0 mm 0.00 in0.0 mm
10:10 AM 44.0°F6.7°C 22.4°F-5.3°C 42% 5.8 mph NNW9.3 kmh NNW 10.4 mph16.7 kmh 30.42 in1030.1 mb - 0.00 in0.0 mm 0.00 in0.0 mm
10:20 AM 45.1°F7.3°C 22.2°F-5.4°C 40% 3.5 mph N5.6 kmh N 6.9 mph11.1 kmh 30.42 in1030.1 mb - 0.00 in0.0 mm 0.00 in0.0 mm
10:30 AM 45.6°F7.6°C 22.0°F-5.6°C 39% 5.8 mph N9.3 kmh N 10.4 mph16.7 kmh 30.42 in1030.1 mb - 0.00 in0.0 mm 0.00 in0.0 mm
10:40 AM 46.4°F8.0°C 22.1°F-5.5°C 38% 4.6 mph N7.4 kmh N 9.2 mph14.8 kmh 30.42 in1030.1 mb - 0.00 in0.0 mm 0.00 in0.0 mm
10:50 AM 47.0°F8.3°C 22.0°F-5.6°C 37% 1.2 mph N1.9 kmh N 6.9 mph11.1 kmh 30.41 in1029.8 mb - 0.00 in0.0 mm 0.00 in0.0 mm
11:00 AM 47.6°F8.7°C 22.0°F-5.6°C 36% 2.3 mph N3.7 kmh N 3.5 mph5.6 kmh 30.41 in1029.8 mb - 0.00 in0.0 mm 0.00 in0.0 mm
11:10 AM 48.4°F9.1°C 22.0°F-5.6°C 35% 4.6 mph NE7.4 kmh NE 9.2 mph14.8 kmh 30.41 in1029.8 mb - 0.00 in0.0 mm 0.00 in0.0 mm
11:20 AM 48.1°F8.9°C 22.4°F-5.3°C 36% 1.2 mph N1.9 kmh N 5.8 mph9.3 kmh 30.40 in1029.5 mb - 0.00 in0.0 mm 0.00 in0.0 mm
11:30 AM 49.2°F9.6°C 22.0°F-5.6°C 34% 1.2 mph N1.9 kmh N 3.5 mph5.6 kmh 30.40 in1029.5 mb - 0.00 in0.0 mm 0.00 in0.0 mm
11:40 AM 50.1°F10.1°C 22.8°F-5.1°C 34% 4.6 mph N7.4 kmh N 5.8 mph9.3 kmh 30.39 in1029.1 mb - 0.00 in0.0 mm 0.00 in0.0 mm
11:50 AM 50.4°F10.2°C 22.3°F-5.4°C 33% 1.2 mph 1.9 kmh 3.5 mph5.6 kmh 30.39 in1029.1 mb - 0.00 in0.0 mm 0.00 in0.0 mm
12:00 PM 51.0°F10.6°C 22.2°F-5.4°C 32% 1.2 mph N1.9 kmh N 3.5 mph5.6 kmh 30.38 in1028.8 mb - 0.00 in0.0 mm 0.00 in0.0 mm
12:10 PM 51.6°F10.9°C 21.9°F-5.6°C 31% 2.3 mph 3.7 kmh 2.3 mph3.7 kmh 30.37 in1028.4 mb - 0.00 in0.0 mm 0.00 in0.0 mm
12:20 PM 51.5°F10.8°C 21.8°F-5.7°C 31% Calm Calm 2.3 mph3.7 kmh 30.37 in1028.4 mb - 0.00 in0.0 mm 0.00 in0.0 mm
12:30 PM 52.2°F11.2°C 22.4°F-5.3°C 31% Calm Calm 1.2 mph1.9 kmh 30.36 in1028.1 mb - 0.00 in0.0 mm 0.00 in0.0 mm
12:40 PM 51.8°F11.0°C 22.1°F-5.5°C 31% Calm Calm 3.5 mph5.6 kmh 30.35 in1027.8 mb - 0.00 in0.0 mm 0.00 in0.0 mm
12:50 PM 52.7°F11.5°C 22.1°F-5.5°C 30% Calm Calm 2.3 mph3.7 kmh 30.35 in1027.8 mb - 0.00 in0.0 mm 0.00 in0.0 mm
01:00 PM 53.6°F12.0°C 22.1°F-5.5°C 29% Calm Calm -- 30.34 in1027.4 mb - 0.00 in0.0 mm 0.00 in0.0 mm
01:10 PM 55.6°F13.1°C 22.1°F-5.5°C 27% Calm Calm -- 30.34 in1027.4 mb - 0.00 in0.0 mm 0.00 in0.0 mm
01:20 PM 56.3°F13.5°C 21.8°F-5.7°C 26% Calm Calm -- 30.33 in1027.1 mb - 0.00 in0.0 mm 0.00 in0.0 mm
01:30 PM 57.0°F13.9°C 21.5°F-5.8°C 25% Calm Calm -- 30.32 in1026.8 mb - 0.00 in0.0 mm 0.00 in0.0 mm
01:40 PM 56.6°F13.7°C 22.0°F-5.6°C 26% Calm Calm -- 30.32 in1026.8 mb - 0.00 in0.0 mm 0.00 in0.0 mm
01:50 PM 56.4°F13.6°C 22.8°F-5.1°C 27% Calm Calm -- 30.32 in1026.8 mb - 0.00 in0.0 mm 0.00 in0.0 mm
02:00 PM 56.8°F13.8°C 21.3°F-5.9°C 25% Calm Calm -- 30.31 in1026.4 mb - 0.00 in0.0 mm 0.00 in0.0 mm
02:10 PM 59.0°F15.0°C 22.2°F-5.4°C 24% Calm Calm -- 30.31 in1026.4 mb - 0.00 in0.0 mm 0.00 in0.0 mm
02:20 PM 59.2°F15.1°C 23.4°F-4.8°C 25% Calm Calm -- 30.30 in1026.1 mb - 0.00 in0.0 mm 0.00 in0.0 mm
02:30 PM 59.3°F15.2°C 22.5°F-5.3°C 24% Calm Calm -- 30.30 in1026.1 mb - 0.00 in0.0 mm 0.00 in0.0 mm
02:40 PM 59.5°F15.3°C 22.6°F-5.2°C 24% 1.2 mph SE1.9 kmh SE 3.5 mph5.6 kmh 30.30 in1026.1 mb - 0.00 in0.0 mm 0.00 in0.0 mm
02:50 PM 58.7°F14.8°C 22.9°F-5.1°C 25% Calm Calm -- 30.30 in1026.1 mb - 0.00 in0.0 mm 0.00 in0.0 mm
03:00 PM 58.7°F14.8°C 22.0°F-5.6°C 24% Calm Calm -- 30.30 in1026.1 mb - 0.00 in0.0 mm 0.00 in0.0 mm
03:10 PM 57.2°F14.0°C 21.6°F-5.8°C 25% Calm Calm 2.3 mph3.7 kmh 30.29 in1025.7 mb - 0.00 in0.0 mm 0.00 in0.0 mm
03:20 PM 57.0°F13.9°C 22.4°F-5.3°C 26% Calm Calm 2.3 mph3.7 kmh 30.29 in1025.7 mb - 0.00 in0.0 mm 0.00 in0.0 mm
03:30 PM 57.1°F13.9°C 21.5°F-5.8°C 25% Calm Calm -- 30.29 in1025.7 mb - 0.00 in0.0 mm 0.00 in0.0 mm
03:40 PM 57.2°F14.0°C 21.6°F-5.8°C 25% 1.2 mph SE1.9 kmh SE 2.3 mph3.7 kmh 30.29 in1025.7 mb - 0.00 in0.0 mm 0.00 in0.0 mm
03:50 PM 56.7°F13.7°C 22.1°F-5.5°C 26% 2.3 mph SE3.7 kmh SE 3.5 mph5.6 kmh 30.29 in1025.7 mb - 0.00 in0.0 mm 0.00 in0.0 mm
04:00 PM 56.3°F13.5°C 21.8°F-5.7°C 26% Calm Calm 1.2 mph1.9 kmh 30.29 in1025.7 mb - 0.00 in0.0 mm 0.00 in0.0 mm
04:10 PM 56.3°F13.5°C 21.8°F-5.7°C 26% Calm Calm 1.2 mph1.9 kmh 30.28 in1025.4 mb - 0.00 in0.0 mm 0.00 in0.0 mm
04:20 PM 55.6°F13.1°C 22.1°F-5.5°C 27% Calm Calm 2.3 mph3.7 kmh 30.28 in1025.4 mb - 0.00 in0.0 mm 0.00 in0.0 mm
04:30 PM 54.8°F12.7°C 21.4°F-5.9°C 27% Calm Calm 1.2 mph1.9 kmh 30.28 in1025.4 mb - 0.00 in0.0 mm 0.00 in0.0 mm
04:40 PM 54.5°F12.5°C 22.0°F-5.6°C 28% Calm Calm -- 30.27 in1025.1 mb - 0.00 in0.0 mm 0.00 in0.0 mm
04:50 PM 54.0°F12.2°C 21.6°F-5.8°C 28% Calm Calm -- 30.27 in1025.1 mb - 0.00 in0.0 mm 0.00 in0.0 mm
05:00 PM 53.5°F11.9°C 21.2°F-6.0°C 28% Calm Calm 1.2 mph1.9 kmh 30.27 in1025.1 mb - 0.00 in0.0 mm 0.00 in0.0 mm
05:10 PM 52.9°F11.6°C 21.5°F-5.8°C 29% Calm Calm -- 30.27 in1025.1 mb - 0.00 in0.0 mm 0.00 in0.0 mm
05:20 PM 52.5°F11.4°C 21.1°F-6.1°C 29% Calm Calm -- 30.27 in1025.1 mb - 0.00 in0.0 mm 0.00 in0.0 mm
05:30 PM 51.9°F11.1°C 21.4°F-5.9°C 30% Calm Calm -- 30.27 in1025.1 mb - 0.00 in0.0 mm 0.00 in0.0 mm
05:40 PM 51.3°F10.7°C 20.9°F-6.2°C 30% Calm Calm -- 30.27 in1025.1 mb - 0.00 in0.0 mm 0.00 in0.0 mm
05:50 PM 51.0°F10.6°C 21.4°F-5.9°C 31% Calm Calm -- 30.27 in1025.1 mb - 0.00 in0.0 mm 0.00 in0.0 mm
06:00 PM 50.7°F10.4°C 21.1°F-6.1°C 31% Calm Calm -- 30.27 in1025.1 mb - 0.00 in0.0 mm 0.00 in0.0 mm
06:10 PM 50.1°F10.1°C 21.3°F-5.9°C 32% Calm Calm -- 30.27 in1025.1 mb - 0.00 in0.0 mm 0.00 in0.0 mm
06:20 PM 49.7°F9.8°C 21.0°F-6.1°C 32% Calm Calm -- 30.27 in1025.1 mb - 0.00 in0.0 mm 0.00 in0.0 mm
06:30 PM 48.9°F9.4°C 21.0°F-6.1°C 33% Calm Calm -- 30.27 in1025.1 mb - 0.00 in0.0 mm 0.00 in0.0 mm
06:40 PM 48.3°F9.1°C 20.5°F-6.4°C 33% Calm Calm -- 30.27 in1025.1 mb - 0.00 in0.0 mm 0.00 in0.0 mm
06:50 PM 47.3°F8.5°C 21.0°F-6.1°C 35% Calm Calm -- 30.28 in1025.4 mb - 0.00 in0.0 mm 0.00 in0.0 mm
07:00 PM 46.0°F7.8°C 20.5°F-6.4°C 36% Calm Calm -- 30.28 in1025.4 mb - 0.00 in0.0 mm 0.00 in0.0 mm
07:10 PM 44.8°F7.1°C 20.0°F-6.7°C 37% Calm Calm -- 30.28 in1025.4 mb - 0.00 in0.0 mm 0.00 in0.0 mm
07:20 PM 44.1°F6.7°C 20.1°F-6.6°C 38% Calm Calm -- 30.28 in1025.4 mb - 0.00 in0.0 mm 0.00 in0.0 mm
07:30 PM 43.0°F6.1°C 19.7°F-6.8°C 39% Calm Calm -- 30.28 in1025.4 mb - 0.00 in0.0 mm 0.00 in0.0 mm
07:40 PM 42.2°F5.7°C 19.6°F-6.9°C 40% Calm Calm -- 30.28 in1025.4 mb - 0.00 in0.0 mm 0.00 in0.0 mm
07:50 PM 41.5°F5.3°C 18.9°F-7.3°C 40% Calm Calm 1.2 mph1.9 kmh 30.27 in1025.1 mb - 0.00 in0.0 mm 0.00 in0.0 mm
08:00 PM 40.4°F4.7°C 18.6°F-7.4°C 41% Calm Calm 1.2 mph1.9 kmh 30.27 in1025.1 mb - 0.00 in0.0 mm 0.00 in0.0 mm
08:10 PM 39.6°F4.2°C 18.9°F-7.3°C 43% Calm Calm 1.2 mph1.9 kmh 30.27 in1025.1 mb - 0.00 in0.0 mm 0.00 in0.0 mm
08:20 PM 39.0°F3.9°C 18.9°F-7.3°C 44% Calm Calm 2.3 mph3.7 kmh 30.27 in1025.1 mb - 0.00 in0.0 mm 0.00 in0.0 mm
08:30 PM 38.6°F3.7°C 18.5°F-7.5°C 44% Calm Calm -- 30.27 in1025.1 mb - 0.00 in0.0 mm 0.00 in0.0 mm
08:40 PM 38.0°F3.3°C 18.5°F-7.5°C 45% Calm Calm 2.3 mph3.7 kmh 30.27 in1025.1 mb - 0.00 in0.0 mm 0.00 in0.0 mm
08:50 PM 37.4°F3.0°C 18.5°F-7.5°C 46% Calm Calm 1.2 mph1.9 kmh 30.27 in1025.1 mb - 0.00 in0.0 mm 0.00 in0.0 mm
09:00 PM 37.2°F2.9°C 18.3°F-7.6°C 46% Calm Calm -- 30.27 in1025.1 mb - 0.00 in0.0 mm 0.00 in0.0 mm
09:10 PM 36.6°F2.6°C 18.2°F-7.7°C 47% Calm Calm -- 30.27 in1025.1 mb - 0.00 in0.0 mm 0.00 in0.0 mm
09:20 PM 36.2°F2.3°C 18.4°F-7.6°C 48% Calm Calm 1.2 mph1.9 kmh 30.28 in1025.4 mb - 0.00 in0.0 mm 0.00 in0.0 mm
09:30 PM 36.2°F2.3°C 18.4°F-7.6°C 48% 1.2 mph S1.9 kmh S 3.5 mph5.6 kmh 30.28 in1025.4 mb - 0.00 in0.0 mm 0.00 in0.0 mm
09:40 PM 36.5°F2.5°C 19.1°F-7.2°C 49% 2.3 mph SSW3.7 kmh SSW 4.6 mph7.4 kmh 30.27 in1025.1 mb - 0.00 in0.0 mm 0.00 in0.0 mm
09:50 PM 36.8°F2.7°C 18.9°F-7.3°C 48% 1.2 mph SW1.9 kmh SW 2.3 mph3.7 kmh 30.27 in1025.1 mb - 0.00 in0.0 mm 0.00 in0.0 mm
10:00 PM 36.8°F2.7°C 18.9°F-7.3°C 48% 2.3 mph SW3.7 kmh SW 3.5 mph5.6 kmh 30.28 in1025.4 mb - 0.00 in0.0 mm 0.00 in0.0 mm
10:10 PM 36.7°F2.6°C 19.3°F-7.1°C 49% 2.3 mph SW3.7 kmh SW 3.5 mph5.6 kmh 30.27 in1025.1 mb - 0.00 in0.0 mm 0.00 in0.0 mm
10:20 PM 36.9°F2.7°C 19.5°F-6.9°C 49% 3.5 mph SW5.6 kmh SW 6.9 mph11.1 kmh 30.28 in1025.4 mb - 0.00 in0.0 mm 0.00 in0.0 mm
10:30 PM 37.1°F2.8°C 19.7°F-6.8°C 49% 2.3 mph SW3.7 kmh SW 4.6 mph7.4 kmh 30.28 in1025.4 mb - 0.00 in0.0 mm 0.00 in0.0 mm
10:40 PM 36.8°F2.7°C 19.9°F-6.7°C 50% 3.5 mph SW5.6 kmh SW 5.8 mph9.3 kmh 30.28 in1025.4 mb - 0.00 in0.0 mm 0.00 in0.0 mm
10:50 PM 37.1°F2.8°C 20.6°F-6.3°C 51% 2.3 mph WSW3.7 kmh WSW 3.5 mph5.6 kmh 30.27 in1025.1 mb - 0.00 in0.0 mm 0.00 in0.0 mm
11:00 PM 37.2°F2.9°C 20.7°F-6.3°C 51% 2.3 mph WSW3.7 kmh WSW 4.6 mph7.4 kmh 30.27 in1025.1 mb - 0.00 in0.0 mm 0.00 in0.0 mm
11:10 PM 37.0°F2.8°C 21.4°F-5.9°C 53% 1.2 mph WSW1.9 kmh WSW 3.5 mph5.6 kmh 30.27 in1025.1 mb - 0.00 in0.0 mm 0.00 in0.0 mm
11:20 PM 37.4°F3.0°C 22.3°F-5.4°C 54% 2.3 mph WSW3.7 kmh WSW 5.8 mph9.3 kmh 30.27 in1025.1 mb - 0.00 in0.0 mm 0.00 in0.0 mm
11:30 PM 38.0°F3.3°C 22.8°F-5.1°C 54% 4.6 mph W7.4 kmh W 6.9 mph11.1 kmh 30.27 in1025.1 mb - 0.00 in0.0 mm 0.00 in0.0 mm
11:40 PM 38.1°F3.4°C 22.9°F-5.1°C 54% 2.3 mph W3.7 kmh W 3.5 mph5.6 kmh 30.27 in1025.1 mb - 0.00 in0.0 mm 0.00 in0.0 mm
11:50 PM 38.6°F3.7°C 23.3°F-4.8°C 54% 2.3 mph W3.7 kmh W 3.5 mph5.6 kmh 30.27 in1025.1 mb - 0.00 in0.0 mm 0.00 in0.0 mm